sensor_id;sensor_type;location;lat;lon;timestamp;temperature;humidity
1602;DHT22;794;48.592;9.634;2023-05-02T00:00:51;8.00;1.00
1602;DHT22;794;48.592;9.634;2023-05-02T00:03:22;7.80;1.00
1602;DHT22;794;48.592;9.634;2023-05-02T00:05:51;8.30;1.00
1602;DHT22;794;48.592;9.634;2023-05-02T00:08:18;7.80;1.00
1602;DHT22;794;48.592;9.634;2023-05-02T00:10:45;8.10;1.00
1602;DHT22;794;48.592;9.634;2023-05-02T00:13:12;7.70;1.00
1602;DHT22;794;48.592;9.634;2023-05-02T00:15:39;7.80;1.00
1602;DHT22;794;48.592;9.634;2023-05-02T00:18:05;7.80;1.00
1602;DHT22;794;48.592;9.634;2023-05-02T00:20:32;7.90;1.00
1602;DHT22;794;48.592;9.634;2023-05-02T00:23:00;7.80;1.00
1602;DHT22;794;48.592;9.634;2023-05-02T00:25:27;7.50;1.00
1602;DHT22;794;48.592;9.634;2023-05-02T00:27:54;7.90;1.00
1602;DHT22;794;48.592;9.634;2023-05-02T00:30:21;7.90;1.00
1602;DHT22;794;48.592;9.634;2023-05-02T00:32:48;7.80;1.00
1602;DHT22;794;48.592;9.634;2023-05-02T00:35:15;7.70;1.00
1602;DHT22;794;48.592;9.634;2023-05-02T00:37:42;7.60;1.00
1602;DHT22;794;48.592;9.634;2023-05-02T00:40:12;7.80;1.00
1602;DHT22;794;48.592;9.634;2023-05-02T00:42:39;7.60;1.00
1602;DHT22;794;48.592;9.634;2023-05-02T00:45:06;7.60;1.00
1602;DHT22;794;48.592;9.634;2023-05-02T00:47:34;7.60;1.00
1602;DHT22;794;48.592;9.634;2023-05-02T00:50:01;7.80;1.00
1602;DHT22;794;48.592;9.634;2023-05-02T00:52:30;7.70;1.00
1602;DHT22;794;48.592;9.634;2023-05-02T00:54:59;7.50;1.00
1602;DHT22;794;48.592;9.634;2023-05-02T00:57:28;7.70;1.00
1602;DHT22;794;48.592;9.634;2023-05-02T00:59:55;7.60;1.00
1602;DHT22;794;48.592;9.634;2023-05-02T01:02:30;7.40;1.00
1602;DHT22;794;48.592;9.634;2023-05-02T01:05:01;7.50;1.00
1602;DHT22;794;48.592;9.634;2023-05-02T01:07:50;7.50;1.00
1602;DHT22;794;48.592;9.634;2023-05-02T01:10:26;7.20;1.00
1602;DHT22;794;48.592;9.634;2023-05-02T01:13:08;7.30;1.00
1602;DHT22;794;48.592;9.634;2023-05-02T01:15:38;7.40;1.00
1602;DHT22;794;48.592;9.634;2023-05-02T01:18:08;7.30;1.00
1602;DHT22;794;48.592;9.634;2023-05-02T01:20:38;7.30;1.00
1602;DHT22;794;48.592;9.634;2023-05-02T01:23:12;7.10;1.00
1602;DHT22;794;48.592;9.634;2023-05-02T01:25:58;7.10;1.00
1602;DHT22;794;48.592;9.634;2023-05-02T01:28:41;7.20;1.00
1602;DHT22;794;48.592;9.634;2023-05-02T01:31:10;7.00;1.00
1602;DHT22;794;48.592;9.634;2023-05-02T01:33:38;7.00;1.00
1602;DHT22;794;48.592;9.634;2023-05-02T01:36:06;7.00;1.00
1602;DHT22;794;48.592;9.634;2023-05-02T01:38:35;7.20;1.00
1602;DHT22;794;48.592;9.634;2023-05-02T01:41:03;7.10;1.00
1602;DHT22;794;48.592;9.634;2023-05-02T01:43:32;6.80;1.00
1602;DHT22;794;48.592;9.634;2023-05-02T01:46:03;6.70;1.00
1602;DHT22;794;48.592;9.634;2023-05-02T01:48:31;6.80;1.00
1602;DHT22;794;48.592;9.634;2023-05-02T01:50:59;7.00;1.00
1602;DHT22;794;48.592;9.634;2023-05-02T01:53:28;7.00;1.00
1602;DHT22;794;48.592;9.634;2023-05-02T01:55:58;6.80;1.00
1602;DHT22;794;48.592;9.634;2023-05-02T01:58:27;6.80;1.00
1602;DHT22;794;48.592;9.634;2023-05-02T02:00:58;7.00;1.00
1602;DHT22;794;48.592;9.634;2023-05-02T02:03:28;6.80;1.00
1602;DHT22;794;48.592;9.634;2023-05-02T02:05:57;6.80;1.00
1602;DHT22;794;48.592;9.634;2023-05-02T02:08:28;6.70;1.00
1602;DHT22;794;48.592;9.634;2023-05-02T02:10:58;6.80;1.00
1602;DHT22;794;48.592;9.634;2023-05-02T02:13:29;7.10;1.00
1602;DHT22;794;48.592;9.634;2023-05-02T02:15:59;6.90;1.00
1602;DHT22;794;48.592;9.634;2023-05-02T02:18:31;6.70;1.00
1602;DHT22;794;48.592;9.634;2023-05-02T02:21:01;6.60;1.00
1602;DHT22;794;48.592;9.634;2023-05-02T02:23:29;6.60;1.00
1602;DHT22;794;48.592;9.634;2023-05-02T02:26:00;6.50;1.00
1602;DHT22;794;48.592;9.634;2023-05-02T02:28:28;6.10;1.00
1602;DHT22;794;48.592;9.634;2023-05-02T02:30:55;6.40;1.00
1602;DHT22;794;48.592;9.634;2023-05-02T02:33:22;6.40;1.00
1602;DHT22;794;48.592;9.634;2023-05-02T02:35:56;6.40;1.00
1602;DHT22;794;48.592;9.634;2023-05-02T02:38:33;7.00;1.00
1602;DHT22;794;48.592;9.634;2023-05-02T02:41:09;6.30;1.00
1602;DHT22;794;48.592;9.634;2023-05-02T02:43:43;6.50;1.00
1602;DHT22;794;48.592;9.634;2023-05-02T02:46:16;6.40;1.00
1602;DHT22;794;48.592;9.634;2023-05-02T02:48:54;6.40;1.00
1602;DHT22;794;48.592;9.634;2023-05-02T02:51:30;6.60;1.00
1602;DHT22;794;48.592;9.634;2023-05-02T02:54:01;6.50;1.00
1602;DHT22;794;48.592;9.634;2023-05-02T02:56:35;6.40;1.00
1602;DHT22;794;48.592;9.634;2023-05-02T02:59:05;6.50;1.00
1602;DHT22;794;48.592;9.634;2023-05-02T03:01:33;6.20;1.00
1602;DHT22;794;48.592;9.634;2023-05-02T03:04:04;6.10;1.00
1602;DHT22;794;48.592;9.634;2023-05-02T03:06:34;6.10;1.00
1602;DHT22;794;48.592;9.634;2023-05-02T03:09:01;6.20;1.00
1602;DHT22;794;48.592;9.634;2023-05-02T03:11:29;6.10;1.00
1602;DHT22;794;48.592;9.634;2023-05-02T03:13:56;6.30;1.00
1602;DHT22;794;48.592;9.634;2023-05-02T03:16:36;6.20;1.00
1602;DHT22;794;48.592;9.634;2023-05-02T03:19:05;6.10;1.00
1602;DHT22;794;48.592;9.634;2023-05-02T03:21:34;5.90;1.00
1602;DHT22;794;48.592;9.634;2023-05-02T03:24:03;6.00;1.00
1602;DHT22;794;48.592;9.634;2023-05-02T03:26:30;6.20;1.00
1602;DHT22;794;48.592;9.634;2023-05-02T03:28:57;6.00;1.00
1602;DHT22;794;48.592;9.634;2023-05-02T03:31:24;6.00;1.00
1602;DHT22;794;48.592;9.634;2023-05-02T03:33:51;5.90;1.00
1602;DHT22;794;48.592;9.634;2023-05-02T03:36:18;6.00;1.00
1602;DHT22;794;48.592;9.634;2023-05-02T03:38:47;6.10;1.00
1602;DHT22;794;48.592;9.634;2023-05-02T03:41:13;7.00;1.00
1602;DHT22;794;48.592;9.634;2023-05-02T03:43:40;6.20;1.00
1602;DHT22;794;48.592;9.634;2023-05-02T03:46:08;6.20;1.00
1602;DHT22;794;48.592;9.634;2023-05-02T03:48:36;6.20;1.00
1602;DHT22;794;48.592;9.634;2023-05-02T03:51:04;6.10;1.00
1602;DHT22;794;48.592;9.634;2023-05-02T03:53:32;6.10;1.00
1602;DHT22;794;48.592;9.634;2023-05-02T03:56:00;6.30;1.00
1602;DHT22;794;48.592;9.634;2023-05-02T03:58:27;6.40;1.00
1602;DHT22;794;48.592;9.634;2023-05-02T04:00:54;6.20;1.00
1602;DHT22;794;48.592;9.634;2023-05-02T04:03:21;6.50;1.00
1602;DHT22;794;48.592;9.634;2023-05-02T04:05:49;6.40;1.00
1602;DHT22;794;48.592;9.634;2023-05-02T04:08:17;6.60;1.00
1602;DHT22;794;48.592;9.634;2023-05-02T04:10:44;6.70;1.00
1602;DHT22;794;48.592;9.634;2023-05-02T04:13:12;6.90;1.00
1602;DHT22;794;48.592;9.634;2023-05-02T04:15:39;6.80;1.00
1602;DHT22;794;48.592;9.634;2023-05-02T04:18:06;7.00;1.00
1602;DHT22;794;48.592;9.634;2023-05-02T04:20:33;7.10;1.00
1602;DHT22;794;48.592;9.634;2023-05-02T04:23:00;7.20;1.00
1602;DHT22;794;48.592;9.634;2023-05-02T04:25:27;7.40;1.00
1602;DHT22;794;48.592;9.634;2023-05-02T04:27:55;7.30;1.00
1602;DHT22;794;48.592;9.634;2023-05-02T04:30:23;7.40;1.00
1602;DHT22;794;48.592;9.634;2023-05-02T04:32:50;7.60;1.00
1602;DHT22;794;48.592;9.634;2023-05-02T04:35:17;7.80;1.00
1602;DHT22;794;48.592;9.634;2023-05-02T04:37:46;7.70;1.00
1602;DHT22;794;48.592;9.634;2023-05-02T04:40:13;7.90;1.00
1602;DHT22;794;48.592;9.634;2023-05-02T04:42:40;8.00;1.00
1602;DHT22;794;48.592;9.634;2023-05-02T04:45:07;8.00;1.00
1602;DHT22;794;48.592;9.634;2023-05-02T04:47:36;8.50;1.00
1602;DHT22;794;48.592;9.634;2023-05-02T04:50:03;8.60;1.00
1602;DHT22;794;48.592;9.634;2023-05-02T04:52:30;8.60;1.00
1602;DHT22;794;48.592;9.634;2023-05-02T04:54:57;8.80;1.00
1602;DHT22;794;48.592;9.634;2023-05-02T04:57:26;8.80;1.00
1602;DHT22;794;48.592;9.634;2023-05-02T04:59:53;9.10;1.00
1602;DHT22;794;48.592;9.634;2023-05-02T05:02:20;9.30;1.00
1602;DHT22;794;48.592;9.634;2023-05-02T05:04:48;9.10;1.00
1602;DHT22;794;48.592;9.634;2023-05-02T05:07:15;9.30;1.00
1602;DHT22;794;48.592;9.634;2023-05-02T05:09:42;9.70;1.00
1602;DHT22;794;48.592;9.634;2023-05-02T05:12:09;9.60;1.00
1602;DHT22;794;48.592;9.634;2023-05-02T05:14:40;10.10;1.00
1602;DHT22;794;48.592;9.634;2023-05-02T05:17:07;10.00;1.00
1602;DHT22;794;48.592;9.634;2023-05-02T05:19:34;10.20;1.00
1602;DHT22;794;48.592;9.634;2023-05-02T05:22:02;10.50;1.00
1602;DHT22;794;48.592;9.634;2023-05-02T05:24:29;10.80;1.00
1602;DHT22;794;48.592;9.634;2023-05-02T05:26:56;10.80;1.00
1602;DHT22;794;48.592;9.634;2023-05-02T05:29:25;11.10;1.00
1602;DHT22;794;48.592;9.634;2023-05-02T05:31:52;11.10;1.00
1602;DHT22;794;48.592;9.634;2023-05-02T05:34:21;11.40;1.00
1602;DHT22;794;48.592;9.634;2023-05-02T05:36:49;11.80;1.00
1602;DHT22;794;48.592;9.634;2023-05-02T05:39:17;11.60;1.00
1602;DHT22;794;48.592;9.634;2023-05-02T05:41:44;11.80;1.00
1602;DHT22;794;48.592;9.634;2023-05-02T05:44:11;11.90;1.00
1602;DHT22;794;48.592;9.634;2023-05-02T05:46:38;11.90;1.00
1602;DHT22;794;48.592;9.634;2023-05-02T05:49:05;11.80;1.00
1602;DHT22;794;48.592;9.634;2023-05-02T05:51:32;12.00;1.00
1602;DHT22;794;48.592;9.634;2023-05-02T05:53:59;11.80;1.00
1602;DHT22;794;48.592;9.634;2023-05-02T05:56:28;12.20;1.00
1602;DHT22;794;48.592;9.634;2023-05-02T05:58:54;12.00;1.00
1602;DHT22;794;48.592;9.634;2023-05-02T06:01:21;12.30;1.00
1602;DHT22;794;48.592;9.634;2023-05-02T06:03:48;12.30;1.00
1602;DHT22;794;48.592;9.634;2023-05-02T06:06:15;11.50;1.00
1602;DHT22;794;48.592;9.634;2023-05-02T06:08:42;12.60;1.00
1602;DHT22;794;48.592;9.634;2023-05-02T06:11:09;12.60;1.00
1602;DHT22;794;48.592;9.634;2023-05-02T06:13:38;12.50;1.00
1602;DHT22;794;48.592;9.634;2023-05-02T06:16:05;12.60;1.00
1602;DHT22;794;48.592;9.634;2023-05-02T06:18:32;12.70;1.00
1602;DHT22;794;48.592;9.634;2023-05-02T06:21:03;12.50;1.00
1602;DHT22;794;48.592;9.634;2023-05-02T06:23:29;12.20;1.00
1602;DHT22;794;48.592;9.634;2023-05-02T06:25:58;12.00;1.00
1602;DHT22;794;48.592;9.634;2023-05-02T06:28:26;12.00;1.00
1602;DHT22;794;48.592;9.634;2023-05-02T06:30:58;11.70;1.00
1602;DHT22;794;48.592;9.634;2023-05-02T06:33:26;11.50;1.00
1602;DHT22;794;48.592;9.634;2023-05-02T06:35:53;11.60;1.00
1602;DHT22;794;48.592;9.634;2023-05-02T06:38:20;11.60;1.00
1602;DHT22;794;48.592;9.634;2023-05-02T06:40:47;11.90;1.00
1602;DHT22;794;48.592;9.634;2023-05-02T06:43:16;11.90;1.00
1602;DHT22;794;48.592;9.634;2023-05-02T06:45:43;11.90;1.00
1602;DHT22;794;48.592;9.634;2023-05-02T06:48:11;11.80;1.00
1602;DHT22;794;48.592;9.634;2023-05-02T06:50:38;12.00;1.00
1602;DHT22;794;48.592;9.634;2023-05-02T06:53:05;12.10;1.00
1602;DHT22;794;48.592;9.634;2023-05-02T06:55:32;12.10;1.00
1602;DHT22;794;48.592;9.634;2023-05-02T06:57:59;11.70;1.00
1602;DHT22;794;48.592;9.634;2023-05-02T07:00:26;12.00;1.00
1602;DHT22;794;48.592;9.634;2023-05-02T07:02:53;11.90;1.00
1602;DHT22;794;48.592;9.634;2023-05-02T07:05:22;12.00;1.00
1602;DHT22;794;48.592;9.634;2023-05-02T07:07:51;11.80;1.00
1602;DHT22;794;48.592;9.634;2023-05-02T07:10:17;11.80;1.00
1602;DHT22;794;48.592;9.634;2023-05-02T07:12:44;11.80;1.00
1602;DHT22;794;48.592;9.634;2023-05-02T07:15:11;11.80;1.00
1602;DHT22;794;48.592;9.634;2023-05-02T07:17:41;12.10;1.00
1602;DHT22;794;48.592;9.634;2023-05-02T07:20:09;12.00;1.00
1602;DHT22;794;48.592;9.634;2023-05-02T07:22:39;11.80;1.00
1602;DHT22;794;48.592;9.634;2023-05-02T07:25:06;12.30;1.00
1602;DHT22;794;48.592;9.634;2023-05-02T07:27:34;12.40;1.00
1602;DHT22;794;48.592;9.634;2023-05-02T07:30:01;12.50;1.00
1602;DHT22;794;48.592;9.634;2023-05-02T07:32:28;12.90;1.00
1602;DHT22;794;48.592;9.634;2023-05-02T07:34:55;13.30;1.00
1602;DHT22;794;48.592;9.634;2023-05-02T07:37:22;13.00;1.00
1602;DHT22;794;48.592;9.634;2023-05-02T07:39:50;13.60;1.00
1602;DHT22;794;48.592;9.634;2023-05-02T07:42:17;13.40;1.00
1602;DHT22;794;48.592;9.634;2023-05-02T07:44:44;13.30;1.00
1602;DHT22;794;48.592;9.634;2023-05-02T07:47:10;13.60;1.00
1602;DHT22;794;48.592;9.634;2023-05-02T07:49:37;13.20;1.00
1602;DHT22;794;48.592;9.634;2023-05-02T07:52:04;13.50;1.00
1602;DHT22;794;48.592;9.634;2023-05-02T07:54:31;13.10;1.00
1602;DHT22;794;48.592;9.634;2023-05-02T07:56:59;13.30;1.00
1602;DHT22;794;48.592;9.634;2023-05-02T07:59:29;13.40;1.00
1602;DHT22;794;48.592;9.634;2023-05-02T08:01:56;13.80;1.00
1602;DHT22;794;48.592;9.634;2023-05-02T08:04:23;13.80;1.00
1602;DHT22;794;48.592;9.634;2023-05-02T08:06:50;13.50;1.00
1602;DHT22;794;48.592;9.634;2023-05-02T08:09:16;13.70;1.00
1602;DHT22;794;48.592;9.634;2023-05-02T08:11:45;13.40;1.00
1602;DHT22;794;48.592;9.634;2023-05-02T08:14:14;13.90;1.00
1602;DHT22;794;48.592;9.634;2023-05-02T08:16:41;13.90;1.00
1602;DHT22;794;48.592;9.634;2023-05-02T08:19:08;14.10;1.00
1602;DHT22;794;48.592;9.634;2023-05-02T08:21:35;13.50;1.00
1602;DHT22;794;48.592;9.634;2023-05-02T08:24:02;13.90;1.00
1602;DHT22;794;48.592;9.634;2023-05-02T08:26:32;13.80;1.00
1602;DHT22;794;48.592;9.634;2023-05-02T08:29:00;14.00;1.00
1602;DHT22;794;48.592;9.634;2023-05-02T08:31:30;14.30;1.00
1602;DHT22;794;48.592;9.634;2023-05-02T08:33:57;14.50;1.00
1602;DHT22;794;48.592;9.634;2023-05-02T08:36:24;14.30;1.00
1602;DHT22;794;48.592;9.634;2023-05-02T08:38:53;14.10;1.00
1602;DHT22;794;48.592;9.634;2023-05-02T08:41:21;14.80;1.00
1602;DHT22;794;48.592;9.634;2023-05-02T08:43:48;15.20;1.00
1602;DHT22;794;48.592;9.634;2023-05-02T08:46:16;15.80;1.00
1602;DHT22;794;48.592;9.634;2023-05-02T08:48:45;16.20;1.00
1602;DHT22;794;48.592;9.634;2023-05-02T08:51:14;16.40;1.00
1602;DHT22;794;48.592;9.634;2023-05-02T08:53:41;16.80;1.00
1602;DHT22;794;48.592;9.634;2023-05-02T08:56:10;16.70;1.00
1602;DHT22;794;48.592;9.634;2023-05-02T08:58:40;16.30;1.00
1602;DHT22;794;48.592;9.634;2023-05-02T09:01:11;16.60;1.00
1602;DHT22;794;48.592;9.634;2023-05-02T09:03:41;17.10;1.00
1602;DHT22;794;48.592;9.634;2023-05-02T09:06:11;17.40;1.00
1602;DHT22;794;48.592;9.634;2023-05-02T09:08:39;17.60;1.00
1602;DHT22;794;48.592;9.634;2023-05-02T09:11:07;17.60;1.00
1602;DHT22;794;48.592;9.634;2023-05-02T09:13:37;18.20;1.00
1602;DHT22;794;48.592;9.634;2023-05-02T09:16:07;18.20;1.00
1602;DHT22;794;48.592;9.634;2023-05-02T09:18:36;18.70;1.00
1602;DHT22;794;48.592;9.634;2023-05-02T09:21:04;18.90;1.00
1602;DHT22;794;48.592;9.634;2023-05-02T09:23:39;18.30;1.00
1602;DHT22;794;48.592;9.634;2023-05-02T09:26:13;18.70;1.00
1602;DHT22;794;48.592;9.634;2023-05-02T09:28:41;18.20;1.00
1602;DHT22;794;48.592;9.634;2023-05-02T09:31:10;18.50;1.00
1602;DHT22;794;48.592;9.634;2023-05-02T09:33:38;18.80;1.00
1602;DHT22;794;48.592;9.634;2023-05-02T09:36:05;19.20;1.00
1602;DHT22;794;48.592;9.634;2023-05-02T09:38:32;19.50;1.00
1602;DHT22;794;48.592;9.634;2023-05-02T09:41:01;19.40;1.00
1602;DHT22;794;48.592;9.634;2023-05-02T09:43:29;19.80;1.00
1602;DHT22;794;48.592;9.634;2023-05-02T09:45:57;19.40;1.00
1602;DHT22;794;48.592;9.634;2023-05-02T09:48:26;19.00;1.00
1602;DHT22;794;48.592;9.634;2023-05-02T09:50:55;19.00;1.00
1602;DHT22;794;48.592;9.634;2023-05-02T09:53:26;18.80;1.00
1602;DHT22;794;48.592;9.634;2023-05-02T09:56:02;18.70;1.00
1602;DHT22;794;48.592;9.634;2023-05-02T09:58:30;18.10;1.00
1602;DHT22;794;48.592;9.634;2023-05-02T10:00:57;19.80;1.00
1602;DHT22;794;48.592;9.634;2023-05-02T10:03:26;19.90;1.00
1602;DHT22;794;48.592;9.634;2023-05-02T10:05:54;19.90;1.00
1602;DHT22;794;48.592;9.634;2023-05-02T10:08:24;19.00;1.00
1602;DHT22;794;48.592;9.634;2023-05-02T10:10:53;18.40;1.00
1602;DHT22;794;48.592;9.634;2023-05-02T10:13:23;18.70;1.00
1602;DHT22;794;48.592;9.634;2023-05-02T10:15:59;18.70;1.00
1602;DHT22;794;48.592;9.634;2023-05-02T10:18:28;18.90;1.00
1602;DHT22;794;48.592;9.634;2023-05-02T10:21:00;19.00;1.00
1602;DHT22;794;48.592;9.634;2023-05-02T10:23:31;19.20;1.00
1602;DHT22;794;48.592;9.634;2023-05-02T10:25:59;19.10;1.00
1602;DHT22;794;48.592;9.634;2023-05-02T10:28:30;19.00;1.00
1602;DHT22;794;48.592;9.634;2023-05-02T10:30:57;20.00;1.00
1602;DHT22;794;48.592;9.634;2023-05-02T10:33:27;18.70;1.00
1602;DHT22;794;48.592;9.634;2023-05-02T10:35:56;20.20;1.00
1602;DHT22;794;48.592;9.634;2023-05-02T10:38:26;19.50;1.00
1602;DHT22;794;48.592;9.634;2023-05-02T10:40:56;18.60;1.00
1602;DHT22;794;48.592;9.634;2023-05-02T10:43:29;18.60;1.00
1602;DHT22;794;48.592;9.634;2023-05-02T10:45:57;18.30;1.00
1602;DHT22;794;48.592;9.634;2023-05-02T10:48:25;17.80;1.00
1602;DHT22;794;48.592;9.634;2023-05-02T10:50:53;17.90;1.00
1602;DHT22;794;48.592;9.634;2023-05-02T10:53:27;18.20;1.00
1602;DHT22;794;48.592;9.634;2023-05-02T10:56:18;18.30;1.00
1602;DHT22;794;48.592;9.634;2023-05-02T10:58:48;18.80;1.00
1602;DHT22;794;48.592;9.634;2023-05-02T11:01:32;18.90;1.00
1602;DHT22;794;48.592;9.634;2023-05-02T11:04:05;18.70;1.00
1602;DHT22;794;48.592;9.634;2023-05-02T11:06:33;18.40;1.00
1602;DHT22;794;48.592;9.634;2023-05-02T11:09:29;17.60;1.00
1602;DHT22;794;48.592;9.634;2023-05-02T11:11:57;17.20;1.00
1602;DHT22;794;48.592;9.634;2023-05-02T11:14:44;17.40;1.00
1602;DHT22;794;48.592;9.634;2023-05-02T11:17:15;17.80;1.00
1602;DHT22;794;48.592;9.634;2023-05-02T11:22:52;18.10;1.00
1602;DHT22;794;48.592;9.634;2023-05-02T11:25:36;18.40;1.00
1602;DHT22;794;48.592;9.634;2023-05-02T11:28:05;18.10;1.00
1602;DHT22;794;48.592;9.634;2023-05-02T11:30:39;17.80;1.00
1602;DHT22;794;48.592;9.634;2023-05-02T11:33:12;18.10;1.00
1602;DHT22;794;48.592;9.634;2023-05-02T11:35:42;18.00;1.00
1602;DHT22;794;48.592;9.634;2023-05-02T11:38:11;18.10;1.00
1602;DHT22;794;48.592;9.634;2023-05-02T11:40:38;18.40;1.00
1602;DHT22;794;48.592;9.634;2023-05-02T11:43:12;18.70;1.00
1602;DHT22;794;48.592;9.634;2023-05-02T11:45:41;18.70;1.00
1602;DHT22;794;48.592;9.634;2023-05-02T11:48:10;18.50;1.00
1602;DHT22;794;48.592;9.634;2023-05-02T11:50:47;18.30;1.00
1602;DHT22;794;48.592;9.634;2023-05-02T11:53:16;18.10;1.00
1602;DHT22;794;48.592;9.634;2023-05-02T11:55:46;18.40;1.00
1602;DHT22;794;48.592;9.634;2023-05-02T11:58:15;18.80;1.00
1602;DHT22;794;48.592;9.634;2023-05-02T12:00:47;17.90;1.00
1602;DHT22;794;48.592;9.634;2023-05-02T12:03:22;17.40;1.00
1602;DHT22;794;48.592;9.634;2023-05-02T12:05:50;17.40;1.00
1602;DHT22;794;48.592;9.634;2023-05-02T12:08:22;17.60;1.00
1602;DHT22;794;48.592;9.634;2023-05-02T12:10:50;17.70;1.00
1602;DHT22;794;48.592;9.634;2023-05-02T12:13:19;17.60;1.00
1602;DHT22;794;48.592;9.634;2023-05-02T12:15:48;17.70;1.00
1602;DHT22;794;48.592;9.634;2023-05-02T12:18:16;17.90;1.00
1602;DHT22;794;48.592;9.634;2023-05-02T12:20:44;18.00;1.00
1602;DHT22;794;48.592;9.634;2023-05-02T12:23:16;17.90;1.00
1602;DHT22;794;48.592;9.634;2023-05-02T12:25:43;18.20;1.00
1602;DHT22;794;48.592;9.634;2023-05-02T12:28:10;18.40;1.00
1602;DHT22;794;48.592;9.634;2023-05-02T12:30:38;18.50;1.00
1602;DHT22;794;48.592;9.634;2023-05-02T12:33:07;18.30;1.00
1602;DHT22;794;48.592;9.634;2023-05-02T12:35:37;18.00;1.00
1602;DHT22;794;48.592;9.634;2023-05-02T12:38:11;17.50;1.00
1602;DHT22;794;48.592;9.634;2023-05-02T12:40:51;17.00;1.00
1602;DHT22;794;48.592;9.634;2023-05-02T12:43:20;16.70;1.00
1602;DHT22;794;48.592;9.634;2023-05-02T12:45:48;16.80;1.00
1602;DHT22;794;48.592;9.634;2023-05-02T12:48:21;17.20;1.00
1602;DHT22;794;48.592;9.634;2023-05-02T12:50:51;17.30;1.00
1602;DHT22;794;48.592;9.634;2023-05-02T12:53:36;16.80;1.00
1602;DHT22;794;48.592;9.634;2023-05-02T12:56:05;16.50;1.00
1602;DHT22;794;48.592;9.634;2023-05-02T12:58:40;16.70;1.00
1602;DHT22;794;48.592;9.634;2023-05-02T13:01:08;16.80;1.00
1602;DHT22;794;48.592;9.634;2023-05-02T13:03:36;17.00;1.00
1602;DHT22;794;48.592;9.634;2023-05-02T13:06:04;17.30;1.00
1602;DHT22;794;48.592;9.634;2023-05-02T13:08:31;17.30;1.00
1602;DHT22;794;48.592;9.634;2023-05-02T13:11:00;17.20;1.00
1602;DHT22;794;48.592;9.634;2023-05-02T13:13:28;16.80;1.00
1602;DHT22;794;48.592;9.634;2023-05-02T13:15:55;16.70;1.00
1602;DHT22;794;48.592;9.634;2023-05-02T13:18:22;16.60;1.00
1602;DHT22;794;48.592;9.634;2023-05-02T13:20:50;14.60;1.00
1602;DHT22;794;48.592;9.634;2023-05-02T13:23:17;16.60;1.00
1602;DHT22;794;48.592;9.634;2023-05-02T13:25:44;17.00;1.00
1602;DHT22;794;48.592;9.634;2023-05-02T13:28:11;17.40;1.00
1602;DHT22;794;48.592;9.634;2023-05-02T13:30:38;17.00;1.00
1602;DHT22;794;48.592;9.634;2023-05-02T13:33:05;17.20;1.00
1602;DHT22;794;48.592;9.634;2023-05-02T13:35:32;17.20;1.00
1602;DHT22;794;48.592;9.634;2023-05-02T13:38:00;17.10;1.00
1602;DHT22;794;48.592;9.634;2023-05-02T13:40:27;17.50;1.00
1602;DHT22;794;48.592;9.634;2023-05-02T13:42:55;17.80;1.00
1602;DHT22;794;48.592;9.634;2023-05-02T13:45:22;16.90;1.00
1602;DHT22;794;48.592;9.634;2023-05-02T13:47:52;18.10;1.00
1602;DHT22;794;48.592;9.634;2023-05-02T13:50:19;17.80;1.00
1602;DHT22;794;48.592;9.634;2023-05-02T13:52:46;17.90;1.00
1602;DHT22;794;48.592;9.634;2023-05-02T13:55:14;17.90;1.00
1602;DHT22;794;48.592;9.634;2023-05-02T13:57:41;18.00;1.00
1602;DHT22;794;48.592;9.634;2023-05-02T14:00:10;18.10;1.00
1602;DHT22;794;48.592;9.634;2023-05-02T14:02:37;18.40;1.00
1602;DHT22;794;48.592;9.634;2023-05-02T14:12:28;18.20;1.00
1602;DHT22;794;48.592;9.634;2023-05-02T14:17:22;17.90;1.00
1602;DHT22;794;48.592;9.634;2023-05-02T14:19:50;17.80;1.00
1602;DHT22;794;48.592;9.634;2023-05-02T14:22:17;17.60;1.00
1602;DHT22;794;48.592;9.634;2023-05-02T14:24:47;16.30;1.00
1602;DHT22;794;48.592;9.634;2023-05-02T14:27:14;16.20;1.00
1602;DHT22;794;48.592;9.634;2023-05-02T14:29:45;15.40;1.00
1602;DHT22;794;48.592;9.634;2023-05-02T14:32:12;15.30;1.00
1602;DHT22;794;48.592;9.634;2023-05-02T14:37:06;14.00;1.00
1602;DHT22;794;48.592;9.634;2023-05-02T14:39:34;13.70;1.00
1602;DHT22;794;48.592;9.634;2023-05-02T14:42:01;13.80;1.00
1602;DHT22;794;48.592;9.634;2023-05-02T14:44:31;14.30;1.00
1602;DHT22;794;48.592;9.634;2023-05-02T14:46:59;14.30;1.00
1602;DHT22;794;48.592;9.634;2023-05-02T14:49:26;14.80;1.00
1602;DHT22;794;48.592;9.634;2023-05-02T14:51:53;15.10;1.00
1602;DHT22;794;48.592;9.634;2023-05-02T14:54:25;15.50;1.00
1602;DHT22;794;48.592;9.634;2023-05-02T14:56:52;16.00;1.00
1602;DHT22;794;48.592;9.634;2023-05-02T14:59:19;15.90;1.00
1602;DHT22;794;48.592;9.634;2023-05-02T15:01:46;15.80;1.00
1602;DHT22;794;48.592;9.634;2023-05-02T15:04:15;15.00;1.00
1602;DHT22;794;48.592;9.634;2023-05-02T15:06:43;14.90;1.00
1602;DHT22;794;48.592;9.634;2023-05-02T15:09:12;15.00;1.00
1602;DHT22;794;48.592;9.634;2023-05-02T15:14:31;14.30;1.00
1602;DHT22;794;48.592;9.634;2023-05-02T15:16:57;15.00;1.00
1602;DHT22;794;48.592;9.634;2023-05-02T15:19:28;15.10;1.00
1602;DHT22;794;48.592;9.634;2023-05-02T15:21:55;15.10;1.00
1602;DHT22;794;48.592;9.634;2023-05-02T15:24:22;15.10;1.00
1602;DHT22;794;48.592;9.634;2023-05-02T15:26:50;15.20;1.00
1602;DHT22;794;48.592;9.634;2023-05-02T15:34:12;14.80;1.00
1602;DHT22;794;48.592;9.634;2023-05-02T15:36:42;14.50;1.00
1602;DHT22;794;48.592;9.634;2023-05-02T15:39:08;14.60;1.00
1602;DHT22;794;48.592;9.634;2023-05-02T15:41:35;14.60;1.00
1602;DHT22;794;48.592;9.634;2023-05-02T15:44:02;14.70;1.00
1602;DHT22;794;48.592;9.634;2023-05-02T15:51:25;15.00;1.00
1602;DHT22;794;48.592;9.634;2023-05-02T15:53:53;15.30;1.00
1602;DHT22;794;48.592;9.634;2023-05-02T15:56:20;15.50;1.00
1602;DHT22;794;48.592;9.634;2023-05-02T16:03:42;15.70;1.00
1602;DHT22;794;48.592;9.634;2023-05-02T16:06:09;15.70;1.00
1602;DHT22;794;48.592;9.634;2023-05-02T16:11:04;15.80;1.00
1602;DHT22;794;48.592;9.634;2023-05-02T16:18:26;15.30;1.00
1602;DHT22;794;48.592;9.634;2023-05-02T16:20:54;15.40;1.00
1602;DHT22;794;48.592;9.634;2023-05-02T16:23:21;15.50;1.00
1602;DHT22;794;48.592;9.634;2023-05-02T16:25:48;15.50;1.00
1602;DHT22;794;48.592;9.634;2023-05-02T16:28:16;15.40;1.00
1602;DHT22;794;48.592;9.634;2023-05-02T16:30:43;15.50;1.00
1602;DHT22;794;48.592;9.634;2023-05-02T16:33:10;15.50;1.00
1602;DHT22;794;48.592;9.634;2023-05-02T16:35:38;15.50;1.00
1602;DHT22;794;48.592;9.634;2023-05-02T16:38:05;15.70;1.00
1602;DHT22;794;48.592;9.634;2023-05-02T16:40:32;15.90;1.00
1602;DHT22;794;48.592;9.634;2023-05-02T16:42:59;16.00;1.00
1602;DHT22;794;48.592;9.634;2023-05-02T16:45:27;16.00;1.00
1602;DHT22;794;48.592;9.634;2023-05-02T16:47:54;15.90;1.00
1602;DHT22;794;48.592;9.634;2023-05-02T17:00:12;16.10;1.00
1602;DHT22;794;48.592;9.634;2023-05-02T17:02:41;15.90;1.00
1602;DHT22;794;48.592;9.634;2023-05-02T17:05:08;15.40;1.00
1602;DHT22;794;48.592;9.634;2023-05-02T17:07:36;15.20;1.00
1602;DHT22;794;48.592;9.634;2023-05-02T17:12:30;12.80;1.00
1602;DHT22;794;48.592;9.634;2023-05-02T17:14:57;14.80;1.00
1602;DHT22;794;48.592;9.634;2023-05-02T17:17:25;13.00;1.00
1602;DHT22;794;48.592;9.634;2023-05-02T17:19:53;14.60;1.00
1602;DHT22;794;48.592;9.634;2023-05-02T17:22:20;14.50;1.00
1602;DHT22;794;48.592;9.634;2023-05-02T17:24:47;14.40;1.00
1602;DHT22;794;48.592;9.634;2023-05-02T17:32:11;14.10;1.00
1602;DHT22;794;48.592;9.634;2023-05-02T17:34:40;14.10;1.00
1602;DHT22;794;48.592;9.634;2023-05-02T17:37:09;14.10;1.00
1602;DHT22;794;48.592;9.634;2023-05-02T17:39:36;14.20;1.00
1602;DHT22;794;48.592;9.634;2023-05-02T17:42:03;14.00;1.00
1602;DHT22;794;48.592;9.634;2023-05-02T17:44:30;13.70;1.00
1602;DHT22;794;48.592;9.634;2023-05-02T17:47:00;13.90;1.00